Main page
METAR-TAF:

METAR-TAF

Airports :

Béziers Cap d'Agde Airport

Béziers, France

latitude: 43-19N, longitude: 003-21E, elevation: 17 m

Current weather observation

The report was made 12 minutes ago, at 01:30 UTC
Wind 6 kt from the West/Northwest
Temperature 24°C
Humidity 69%
Pressure 1016 hPa
Visibility 10 km or more
no clouds below 1500 m and no cumulonimbus

METAR: LFMU 220130Z AUTO 29006KT CAVOK 24/18 Q1016

Time: 03:42 (01:42 UTC)

Forecast

The report was made 17 hours and 42 minutes ago, at 08:00 UTC
Forecast valid from 21 at 09 UTC to 22 at 09 UTC
Wind 3 kt from variable directions
Visibility 10 km or more
no clouds below 1500 m and no cumulonimbus
Becoming
from 21 at 10 UTC to 21 at 12 UTC
Wind 10 kt from the South
Becoming
from 21 at 19 UTC to 21 at 21 UTC
Wind 10 kt from the Northwest

TAF: LFMU 210800Z 2109/2209 VRB03KT CAVOK BECMG 2110/2112 18010KT BECMG 2119/2121 32010KT

Weather observations and forecasts of more than 4000 airports (METAR and TAF reports).

The available stations are represented by yellow and red dots on the map.

Hover mouse over dot to see the name of the station.

Then click to see weather observations and forecasts.

To change the map : click on the green buttons with a black cross to zoom in, on the green button with a dash to zoom out, or on the green arrows for adjacent maps.


METAR-TAF: